Hambleton, WV

6:01 PM EDT on September 22, 2014 (GMT -0400)
Holly Meadows River Bend Estates | Change Station
CLOSE
Current Station
Personal Weather Station
Location: Parsons, WV
Elevation: 1623 ft
Nearby Weather Stations
Active Advisory: Frost Advisory

Elev 1623 ft 39.12 °N, 79.66 °W | Updated 1 minute ago

Mostly Cloudy
Mostly Cloudy
57.7 °F
Feels Like 57.7 °F
N
2.0
Wind Variable Wind from NNW
Gusts 3.0 mph

Today
High -- | Low -- °F
--% Chance of Precip.
Yesterday
High -- | Low -- °F
Precip. -- in
7:06 AM 7:15 PM
Waning Crescent, 2% visible
Pressure 30.21 in
Visibility 10.0 miles
Clouds Mostly Cloudy 4100 ft
Dew Point 49 °F
Humidity 72%
Rainfall 0.02 in
Snow Depth Not available.
UV 1 out of 12
Pollen 3.30 out of 12
Air Quality Not available.
Flu Activity Not available.
METAR KEKN 222151Z AUTO 30007KT 10SM BKN041 13/07 A3019 RMK AO2 SLP229 T01330072 TSNO

More Conditions Fewer Conditions

Pressure 30.21 in
Visibility 10.0 miles
Clouds Mostly Cloudy 4100 ft
Dew Point 49 °F
Humidity 72%
Rainfall 0.02 in
Snow Depth Not available.
UV 1 out of 12
Pollen 3.30 out of 12
Air Quality Not available.
Flu Activity Not available.
METAR KEKN 222151Z AUTO 30007KT 10SM BKN041 13/07 A3019 RMK AO2 SLP229 T01330072 TSNO

More Conditions Fewer Conditions

10-Day Weather Forecast

Almanac

Astronomy

Sep. 22, 2014 Rise Set
Actual Time 7:06 AM EDT 7:15 PM EDT
Civil Twilight 6:39 AM EDT 7:42 PM EDT
Nautical Twilight 6:08 AM EDT 8:13 PM EDT
Astronomical Twilight 5:36 AM EDT 8:44 PM EDT
Moon 5:33 AM EDT 6:21 PM EDT
Length of Visible Light 13h 02m
Length of Day
12h 09m
Tomorrow will be 2m 32s shorter.
Waning Crescent, 2% of the Moon is Illuminated
Today
Waning Crescent
Sep 24
New
Oct 1
First Quarter
Oct 8
Full
Oct 15
Last Quarter

Today's Extremes

State Highs State Lows

Community

WunderPhotos

Upload Photos

1,755,535 photos uploaded!

WunderBlogs® & News

By Dr. Jeff Masters
Director of Meteorology, Weather Underground
By Kari Strenfel
Meteorologist, Weather Underground
By Christopher C. Burt
Weather Historian, Weather Underground
September 22, 2014
September 22, 2014
September 22, 2014

Nearby

Snow Depth

Station Depth Elevation
No new snow has been reported.

Earthquake Activity

City Distance Mag. Time & Date
No recent earthquake activity has been reported nearby.
Minimum magnitude displayed is 2.5.

Coastal Water Temperatures

Place Temperature
No Stations Reporting

Nearby Weather Stations